sensor_id;sensor_type;location;lat;lon;timestamp;P1;durP1;ratioP1;P2;durP2;ratioP2
8482;SDS011;4278;42.668;23.312;2023-12-14T00:00:39;21.33;;;11.70;;
8482;SDS011;4278;42.668;23.312;2023-12-14T00:03:06;21.73;;;12.07;;
8482;SDS011;4278;42.668;23.312;2023-12-14T00:05:33;19.40;;;10.83;;
8482;SDS011;4278;42.668;23.312;2023-12-14T00:08:01;20.67;;;10.50;;
8482;SDS011;4278;42.668;23.312;2023-12-14T00:10:28;18.10;;;10.67;;
8482;SDS011;4278;42.668;23.312;2023-12-14T00:12:55;19.57;;;11.07;;
8482;SDS011;4278;42.668;23.312;2023-12-14T00:15:22;26.77;;;13.30;;
8482;SDS011;4278;42.668;23.312;2023-12-14T00:17:49;19.37;;;12.07;;
8482;SDS011;4278;42.668;23.312;2023-12-14T00:20:16;18.53;;;10.90;;
8482;SDS011;4278;42.668;23.312;2023-12-14T00:22:43;22.27;;;11.80;;
8482;SDS011;4278;42.668;23.312;2023-12-14T00:25:11;19.40;;;11.10;;
8482;SDS011;4278;42.668;23.312;2023-12-14T00:27:38;18.33;;;11.13;;
8482;SDS011;4278;42.668;23.312;2023-12-14T00:30:06;17.33;;;11.17;;
8482;SDS011;4278;42.668;23.312;2023-12-14T00:32:33;18.60;;;10.83;;
8482;SDS011;4278;42.668;23.312;2023-12-14T00:35:00;20.37;;;12.37;;
8482;SDS011;4278;42.668;23.312;2023-12-14T00:37:27;17.93;;;11.10;;
8482;SDS011;4278;42.668;23.312;2023-12-14T00:39:54;22.87;;;11.00;;
8482;SDS011;4278;42.668;23.312;2023-12-14T00:42:23;19.70;;;11.50;;
8482;SDS011;4278;42.668;23.312;2023-12-14T00:44:50;16.43;;;10.63;;
8482;SDS011;4278;42.668;23.312;2023-12-14T00:47:17;24.90;;;11.10;;
8482;SDS011;4278;42.668;23.312;2023-12-14T00:49:44;17.37;;;10.20;;
8482;SDS011;4278;42.668;23.312;2023-12-14T00:52:10;18.57;;;11.37;;
8482;SDS011;4278;42.668;23.312;2023-12-14T00:54:37;15.50;;;10.67;;
8482;SDS011;4278;42.668;23.312;2023-12-14T00:57:04;16.83;;;11.07;;
8482;SDS011;4278;42.668;23.312;2023-12-14T00:59:32;18.30;;;10.70;;
8482;SDS011;4278;42.668;23.312;2023-12-14T01:01:59;19.17;;;11.23;;
8482;SDS011;4278;42.668;23.312;2023-12-14T01:04:26;18.17;;;11.47;;
8482;SDS011;4278;42.668;23.312;2023-12-14T01:06:53;18.33;;;11.37;;
8482;SDS011;4278;42.668;23.312;2023-12-14T01:09:20;17.97;;;10.63;;
8482;SDS011;4278;42.668;23.312;2023-12-14T01:11:47;17.03;;;10.90;;
8482;SDS011;4278;42.668;23.312;2023-12-14T01:14:14;19.87;;;11.87;;
8482;SDS011;4278;42.668;23.312;2023-12-14T01:16:42;21.40;;;12.07;;
8482;SDS011;4278;42.668;23.312;2023-12-14T01:19:09;19.20;;;11.60;;
8482;SDS011;4278;42.668;23.312;2023-12-14T01:21:36;20.73;;;12.13;;
8482;SDS011;4278;42.668;23.312;2023-12-14T01:24:03;22.47;;;12.80;;
8482;SDS011;4278;42.668;23.312;2023-12-14T01:26:30;21.80;;;12.07;;
8482;SDS011;4278;42.668;23.312;2023-12-14T01:28:57;22.67;;;11.97;;
8482;SDS011;4278;42.668;23.312;2023-12-14T01:31:25;20.87;;;11.93;;
8482;SDS011;4278;42.668;23.312;2023-12-14T01:33:53;20.23;;;11.73;;
8482;SDS011;4278;42.668;23.312;2023-12-14T01:36:20;20.90;;;12.27;;
8482;SDS011;4278;42.668;23.312;2023-12-14T01:38:47;18.33;;;11.80;;
8482;SDS011;4278;42.668;23.312;2023-12-14T01:41:15;21.37;;;12.43;;
8482;SDS011;4278;42.668;23.312;2023-12-14T01:43:42;24.17;;;12.53;;
8482;SDS011;4278;42.668;23.312;2023-12-14T01:46:09;37.50;;;18.50;;
8482;SDS011;4278;42.668;23.312;2023-12-14T01:48:36;22.83;;;12.33;;
8482;SDS011;4278;42.668;23.312;2023-12-14T01:51:04;23.17;;;12.10;;
8482;SDS011;4278;42.668;23.312;2023-12-14T01:53:31;20.70;;;12.00;;
8482;SDS011;4278;42.668;23.312;2023-12-14T01:55:58;24.87;;;12.17;;
8482;SDS011;4278;42.668;23.312;2023-12-14T01:58:25;18.67;;;11.30;;
8482;SDS011;4278;42.668;23.312;2023-12-14T02:00:54;22.40;;;11.27;;
8482;SDS011;4278;42.668;23.312;2023-12-14T02:03:28;20.90;;;11.37;;
8482;SDS011;4278;42.668;23.312;2023-12-14T02:05:55;16.23;;;10.87;;
8482;SDS011;4278;42.668;23.312;2023-12-14T02:08:24;16.87;;;10.77;;
8482;SDS011;4278;42.668;23.312;2023-12-14T02:10:51;17.93;;;10.57;;
8482;SDS011;4278;42.668;23.312;2023-12-14T02:13:18;19.33;;;11.97;;
8482;SDS011;4278;42.668;23.312;2023-12-14T02:15:45;16.83;;;10.17;;
8482;SDS011;4278;42.668;23.312;2023-12-14T02:18:13;18.03;;;10.60;;
8482;SDS011;4278;42.668;23.312;2023-12-14T02:20:40;17.73;;;10.10;;
8482;SDS011;4278;42.668;23.312;2023-12-14T02:23:08;14.97;;;9.60;;
8482;SDS011;4278;42.668;23.312;2023-12-14T02:25:35;15.87;;;10.10;;
8482;SDS011;4278;42.668;23.312;2023-12-14T02:28:02;17.77;;;11.67;;
8482;SDS011;4278;42.668;23.312;2023-12-14T02:30:29;17.73;;;10.23;;
8482;SDS011;4278;42.668;23.312;2023-12-14T02:32:55;15.33;;;8.73;;
8482;SDS011;4278;42.668;23.312;2023-12-14T02:35:23;13.90;;;8.93;;
8482;SDS011;4278;42.668;23.312;2023-12-14T02:37:50;16.00;;;10.00;;
8482;SDS011;4278;42.668;23.312;2023-12-14T02:40:18;13.10;;;9.13;;
8482;SDS011;4278;42.668;23.312;2023-12-14T02:42:45;16.70;;;9.37;;
8482;SDS011;4278;42.668;23.312;2023-12-14T02:45:12;14.97;;;9.17;;
8482;SDS011;4278;42.668;23.312;2023-12-14T02:47:39;17.53;;;9.30;;
8482;SDS011;4278;42.668;23.312;2023-12-14T02:50:06;15.57;;;9.53;;
8482;SDS011;4278;42.668;23.312;2023-12-14T02:52:33;12.53;;;7.97;;
8482;SDS011;4278;42.668;23.312;2023-12-14T02:55:00;19.97;;;9.70;;
8482;SDS011;4278;42.668;23.312;2023-12-14T02:57:29;13.13;;;8.17;;
8482;SDS011;4278;42.668;23.312;2023-12-14T02:59:56;12.57;;;7.90;;
8482;SDS011;4278;42.668;23.312;2023-12-14T03:02:23;16.27;;;8.73;;
8482;SDS011;4278;42.668;23.312;2023-12-14T03:04:50;9.33;;;6.77;;
8482;SDS011;4278;42.668;23.312;2023-12-14T03:07:16;12.23;;;7.87;;
8482;SDS011;4278;42.668;23.312;2023-12-14T03:09:44;10.27;;;7.37;;
8482;SDS011;4278;42.668;23.312;2023-12-14T03:12:11;10.30;;;6.60;;
8482;SDS011;4278;42.668;23.312;2023-12-14T03:14:39;13.93;;;8.27;;
8482;SDS011;4278;42.668;23.312;2023-12-14T03:17:07;11.87;;;7.27;;
8482;SDS011;4278;42.668;23.312;2023-12-14T03:19:38;9.20;;;6.47;;
8482;SDS011;4278;42.668;23.312;2023-12-14T03:22:06;9.60;;;7.20;;
8482;SDS011;4278;42.668;23.312;2023-12-14T03:24:33;11.40;;;7.33;;
8482;SDS011;4278;42.668;23.312;2023-12-14T03:27:01;10.27;;;6.03;;
8482;SDS011;4278;42.668;23.312;2023-12-14T03:29:28;10.73;;;7.43;;
8482;SDS011;4278;42.668;23.312;2023-12-14T03:31:56;9.43;;;5.90;;
8482;SDS011;4278;42.668;23.312;2023-12-14T03:34:23;9.60;;;5.80;;
8482;SDS011;4278;42.668;23.312;2023-12-14T03:36:50;9.57;;;5.97;;
8482;SDS011;4278;42.668;23.312;2023-12-14T03:39:17;9.10;;;6.10;;
8482;SDS011;4278;42.668;23.312;2023-12-14T03:41:44;9.87;;;6.97;;
8482;SDS011;4278;42.668;23.312;2023-12-14T03:44:11;10.23;;;7.23;;
8482;SDS011;4278;42.668;23.312;2023-12-14T03:46:38;12.17;;;6.87;;
8482;SDS011;4278;42.668;23.312;2023-12-14T03:49:07;8.90;;;6.20;;
8482;SDS011;4278;42.668;23.312;2023-12-14T03:51:34;11.37;;;6.40;;
8482;SDS011;4278;42.668;23.312;2023-12-14T03:54:01;11.23;;;6.30;;
8482;SDS011;4278;42.668;23.312;2023-12-14T03:56:28;9.53;;;6.07;;
8482;SDS011;4278;42.668;23.312;2023-12-14T03:58:54;8.63;;;6.17;;
8482;SDS011;4278;42.668;23.312;2023-12-14T04:01:23;8.93;;;6.27;;
8482;SDS011;4278;42.668;23.312;2023-12-14T04:03:50;11.00;;;6.17;;
8482;SDS011;4278;42.668;23.312;2023-12-14T04:06:18;11.27;;;8.17;;
8482;SDS011;4278;42.668;23.312;2023-12-14T04:08:45;8.67;;;6.50;;
8482;SDS011;4278;42.668;23.312;2023-12-14T04:11:12;18.63;;;9.67;;
8482;SDS011;4278;42.668;23.312;2023-12-14T04:13:39;17.97;;;9.57;;
8482;SDS011;4278;42.668;23.312;2023-12-14T04:16:06;13.00;;;8.03;;
8482;SDS011;4278;42.668;23.312;2023-12-14T04:18:33;11.50;;;7.27;;
8482;SDS011;4278;42.668;23.312;2023-12-14T04:21:00;10.67;;;7.30;;
8482;SDS011;4278;42.668;23.312;2023-12-14T04:23:28;10.20;;;6.83;;
8482;SDS011;4278;42.668;23.312;2023-12-14T04:25:55;11.30;;;6.70;;
8482;SDS011;4278;42.668;23.312;2023-12-14T04:28:22;10.90;;;5.90;;
8482;SDS011;4278;42.668;23.312;2023-12-14T04:30:49;8.77;;;6.00;;
8482;SDS011;4278;42.668;23.312;2023-12-14T04:33:16;8.73;;;5.93;;
8482;SDS011;4278;42.668;23.312;2023-12-14T04:35:42;11.47;;;6.20;;
8482;SDS011;4278;42.668;23.312;2023-12-14T04:38:09;9.40;;;5.80;;
8482;SDS011;4278;42.668;23.312;2023-12-14T04:40:38;7.83;;;5.30;;
8482;SDS011;4278;42.668;23.312;2023-12-14T04:43:05;10.50;;;6.37;;
8482;SDS011;4278;42.668;23.312;2023-12-14T04:45:31;12.87;;;7.73;;
8482;SDS011;4278;42.668;23.312;2023-12-14T04:47:58;9.67;;;6.10;;
8482;SDS011;4278;42.668;23.312;2023-12-14T04:50:25;11.83;;;6.80;;
8482;SDS011;4278;42.668;23.312;2023-12-14T04:52:53;11.53;;;6.90;;
8482;SDS011;4278;42.668;23.312;2023-12-14T04:55:20;11.30;;;6.87;;
8482;SDS011;4278;42.668;23.312;2023-12-14T04:58:06;9.37;;;6.37;;
8482;SDS011;4278;42.668;23.312;2023-12-14T05:00:33;6.73;;;5.17;;
8482;SDS011;4278;42.668;23.312;2023-12-14T05:03:00;12.93;;;7.60;;
8482;SDS011;4278;42.668;23.312;2023-12-14T05:05:27;9.17;;;6.07;;
8482;SDS011;4278;42.668;23.312;2023-12-14T05:07:54;8.87;;;6.03;;
8482;SDS011;4278;42.668;23.312;2023-12-14T05:10:21;15.53;;;8.60;;
8482;SDS011;4278;42.668;23.312;2023-12-14T05:12:47;9.20;;;5.50;;
8482;SDS011;4278;42.668;23.312;2023-12-14T05:15:16;11.50;;;6.77;;
8482;SDS011;4278;42.668;23.312;2023-12-14T05:17:44;12.33;;;6.13;;
8482;SDS011;4278;42.668;23.312;2023-12-14T05:20:11;13.97;;;7.53;;
8482;SDS011;4278;42.668;23.312;2023-12-14T05:22:38;11.13;;;6.70;;
8482;SDS011;4278;42.668;23.312;2023-12-14T05:25:05;13.67;;;8.70;;
8482;SDS011;4278;42.668;23.312;2023-12-14T05:27:32;9.50;;;6.00;;
8482;SDS011;4278;42.668;23.312;2023-12-14T05:29:59;17.10;;;10.03;;
8482;SDS011;4278;42.668;23.312;2023-12-14T05:32:27;10.60;;;6.33;;
8482;SDS011;4278;42.668;23.312;2023-12-14T05:34:56;9.80;;;6.77;;
8482;SDS011;4278;42.668;23.312;2023-12-14T05:37:24;18.47;;;10.43;;
8482;SDS011;4278;42.668;23.312;2023-12-14T05:39:51;12.80;;;6.80;;
8482;SDS011;4278;42.668;23.312;2023-12-14T05:42:18;10.27;;;7.03;;
8482;SDS011;4278;42.668;23.312;2023-12-14T05:44:45;9.13;;;5.87;;
8482;SDS011;4278;42.668;23.312;2023-12-14T05:47:12;10.20;;;5.43;;
8482;SDS011;4278;42.668;23.312;2023-12-14T05:49:42;9.13;;;6.23;;
8482;SDS011;4278;42.668;23.312;2023-12-14T05:52:09;14.07;;;7.50;;
8482;SDS011;4278;42.668;23.312;2023-12-14T05:54:36;11.53;;;5.53;;
8482;SDS011;4278;42.668;23.312;2023-12-14T05:57:03;7.83;;;5.83;;
8482;SDS011;4278;42.668;23.312;2023-12-14T05:59:30;11.53;;;6.00;;
8482;SDS011;4278;42.668;23.312;2023-12-14T06:01:57;9.77;;;6.13;;
8482;SDS011;4278;42.668;23.312;2023-12-14T06:04:25;9.10;;;6.40;;
8482;SDS011;4278;42.668;23.312;2023-12-14T06:06:54;15.97;;;11.30;;
8482;SDS011;4278;42.668;23.312;2023-12-14T06:09:21;10.37;;;6.40;;
8482;SDS011;4278;42.668;23.312;2023-12-14T06:11:51;11.97;;;7.60;;
8482;SDS011;4278;42.668;23.312;2023-12-14T06:14:18;13.93;;;7.93;;
8482;SDS011;4278;42.668;23.312;2023-12-14T06:16:45;10.17;;;6.30;;
8482;SDS011;4278;42.668;23.312;2023-12-14T06:19:12;12.53;;;6.13;;
8482;SDS011;4278;42.668;23.312;2023-12-14T06:21:39;12.20;;;7.30;;
8482;SDS011;4278;42.668;23.312;2023-12-14T06:24:08;12.40;;;7.10;;
8482;SDS011;4278;42.668;23.312;2023-12-14T06:26:35;7.13;;;6.03;;
8482;SDS011;4278;42.668;23.312;2023-12-14T06:29:06;9.83;;;6.53;;
8482;SDS011;4278;42.668;23.312;2023-12-14T06:31:33;9.87;;;6.67;;
8482;SDS011;4278;42.668;23.312;2023-12-14T06:34:00;10.73;;;6.63;;
8482;SDS011;4278;42.668;23.312;2023-12-14T06:36:29;10.43;;;6.80;;
8482;SDS011;4278;42.668;23.312;2023-12-14T06:38:56;12.13;;;6.80;;
8482;SDS011;4278;42.668;23.312;2023-12-14T06:41:25;10.87;;;7.07;;
8482;SDS011;4278;42.668;23.312;2023-12-14T06:43:53;11.23;;;7.73;;
8482;SDS011;4278;42.668;23.312;2023-12-14T06:46:20;9.57;;;6.70;;
8482;SDS011;4278;42.668;23.312;2023-12-14T06:48:49;12.37;;;7.23;;
8482;SDS011;4278;42.668;23.312;2023-12-14T06:51:15;15.50;;;9.40;;
8482;SDS011;4278;42.668;23.312;2023-12-14T06:53:42;23.10;;;12.47;;
8482;SDS011;4278;42.668;23.312;2023-12-14T06:56:11;11.63;;;7.70;;
8482;SDS011;4278;42.668;23.312;2023-12-14T06:58:39;11.87;;;8.70;;
8482;SDS011;4278;42.668;23.312;2023-12-14T07:01:07;12.77;;;6.90;;
8482;SDS011;4278;42.668;23.312;2023-12-14T07:03:39;15.17;;;8.63;;
8482;SDS011;4278;42.668;23.312;2023-12-14T07:06:06;13.70;;;8.23;;
8482;SDS011;4278;42.668;23.312;2023-12-14T07:08:33;14.03;;;8.10;;
8482;SDS011;4278;42.668;23.312;2023-12-14T07:11:00;15.97;;;8.47;;
8482;SDS011;4278;42.668;23.312;2023-12-14T07:13:27;10.83;;;7.80;;
8482;SDS011;4278;42.668;23.312;2023-12-14T07:15:56;14.57;;;9.50;;
8482;SDS011;4278;42.668;23.312;2023-12-14T07:18:22;19.77;;;9.73;;
8482;SDS011;4278;42.668;23.312;2023-12-14T07:20:49;19.03;;;10.27;;
8482;SDS011;4278;42.668;23.312;2023-12-14T07:23:16;22.30;;;12.47;;
8482;SDS011;4278;42.668;23.312;2023-12-14T07:25:43;20.13;;;11.67;;
8482;SDS011;4278;42.668;23.312;2023-12-14T07:28:10;18.07;;;10.23;;
8482;SDS011;4278;42.668;23.312;2023-12-14T07:30:38;19.97;;;9.60;;
8482;SDS011;4278;42.668;23.312;2023-12-14T07:33:06;23.30;;;13.63;;
8482;SDS011;4278;42.668;23.312;2023-12-14T07:35:33;20.93;;;11.23;;
8482;SDS011;4278;42.668;23.312;2023-12-14T07:38:00;17.80;;;10.90;;
8482;SDS011;4278;42.668;23.312;2023-12-14T07:40:27;17.17;;;8.90;;
8482;SDS011;4278;42.668;23.312;2023-12-14T07:42:54;25.13;;;11.33;;
8482;SDS011;4278;42.668;23.312;2023-12-14T07:45:21;16.40;;;8.70;;
8482;SDS011;4278;42.668;23.312;2023-12-14T07:47:48;22.53;;;13.00;;
8482;SDS011;4278;42.668;23.312;2023-12-14T07:50:16;17.77;;;7.40;;
8482;SDS011;4278;42.668;23.312;2023-12-14T07:52:44;12.07;;;7.20;;
8482;SDS011;4278;42.668;23.312;2023-12-14T07:55:11;18.00;;;6.40;;
8482;SDS011;4278;42.668;23.312;2023-12-14T07:57:39;11.07;;;7.17;;
8482;SDS011;4278;42.668;23.312;2023-12-14T08:00:07;22.37;;;12.30;;
8482;SDS011;4278;42.668;23.312;2023-12-14T08:02:35;16.00;;;7.87;;
8482;SDS011;4278;42.668;23.312;2023-12-14T08:05:02;11.80;;;6.47;;
8482;SDS011;4278;42.668;23.312;2023-12-14T08:07:31;15.47;;;6.70;;
8482;SDS011;4278;42.668;23.312;2023-12-14T08:09:59;10.40;;;6.63;;
8482;SDS011;4278;42.668;23.312;2023-12-14T08:12:26;10.07;;;7.17;;
8482;SDS011;4278;42.668;23.312;2023-12-14T08:14:53;12.10;;;5.63;;
8482;SDS011;4278;42.668;23.312;2023-12-14T08:17:20;12.60;;;6.60;;
8482;SDS011;4278;42.668;23.312;2023-12-14T08:19:47;16.30;;;7.60;;
8482;SDS011;4278;42.668;23.312;2023-12-14T08:22:14;15.53;;;7.13;;
8482;SDS011;4278;42.668;23.312;2023-12-14T08:24:42;10.87;;;7.40;;
8482;SDS011;4278;42.668;23.312;2023-12-14T08:27:09;12.97;;;7.17;;
8482;SDS011;4278;42.668;23.312;2023-12-14T08:29:36;16.50;;;7.03;;
8482;SDS011;4278;42.668;23.312;2023-12-14T08:32:04;14.00;;;6.90;;
8482;SDS011;4278;42.668;23.312;2023-12-14T08:34:31;11.00;;;6.87;;
8482;SDS011;4278;42.668;23.312;2023-12-14T08:37:00;20.23;;;8.00;;
8482;SDS011;4278;42.668;23.312;2023-12-14T08:39:27;11.97;;;7.03;;
8482;SDS011;4278;42.668;23.312;2023-12-14T08:41:55;52.80;;;25.33;;
8482;SDS011;4278;42.668;23.312;2023-12-14T08:44:22;11.63;;;7.20;;
8482;SDS011;4278;42.668;23.312;2023-12-14T08:46:49;14.00;;;6.63;;
8482;SDS011;4278;42.668;23.312;2023-12-14T08:49:16;15.57;;;6.23;;
8482;SDS011;4278;42.668;23.312;2023-12-14T08:51:43;13.80;;;6.93;;
8482;SDS011;4278;42.668;23.312;2023-12-14T08:54:10;11.03;;;5.97;;
8482;SDS011;4278;42.668;23.312;2023-12-14T08:56:37;10.80;;;6.40;;
8482;SDS011;4278;42.668;23.312;2023-12-14T08:59:06;12.30;;;6.83;;
8482;SDS011;4278;42.668;23.312;2023-12-14T09:01:34;10.87;;;5.40;;
8482;SDS011;4278;42.668;23.312;2023-12-14T09:04:01;13.57;;;7.60;;
8482;SDS011;4278;42.668;23.312;2023-12-14T09:06:28;12.07;;;7.80;;
8482;SDS011;4278;42.668;23.312;2023-12-14T09:08:55;10.27;;;6.53;;
8482;SDS011;4278;42.668;23.312;2023-12-14T09:11:22;11.77;;;6.23;;
8482;SDS011;4278;42.668;23.312;2023-12-14T09:13:49;11.27;;;6.00;;
8482;SDS011;4278;42.668;23.312;2023-12-14T09:16:18;11.90;;;5.93;;
8482;SDS011;4278;42.668;23.312;2023-12-14T09:18:45;10.97;;;6.67;;
8482;SDS011;4278;42.668;23.312;2023-12-14T09:21:12;10.00;;;6.47;;
8482;SDS011;4278;42.668;23.312;2023-12-14T09:23:40;11.53;;;6.60;;
8482;SDS011;4278;42.668;23.312;2023-12-14T09:26:07;9.50;;;6.10;;
8482;SDS011;4278;42.668;23.312;2023-12-14T09:28:34;12.77;;;6.47;;
8482;SDS011;4278;42.668;23.312;2023-12-14T09:31:01;8.57;;;5.77;;
8482;SDS011;4278;42.668;23.312;2023-12-14T09:33:29;10.03;;;6.97;;
8482;SDS011;4278;42.668;23.312;2023-12-14T09:35:56;13.53;;;7.80;;
8482;SDS011;4278;42.668;23.312;2023-12-14T09:38:23;9.17;;;5.57;;
8482;SDS011;4278;42.668;23.312;2023-12-14T09:40:50;7.50;;;5.07;;
8482;SDS011;4278;42.668;23.312;2023-12-14T09:43:17;9.43;;;5.70;;
8482;SDS011;4278;42.668;23.312;2023-12-14T09:45:44;8.03;;;5.60;;
8482;SDS011;4278;42.668;23.312;2023-12-14T09:48:12;9.70;;;5.93;;
8482;SDS011;4278;42.668;23.312;2023-12-14T09:50:43;10.80;;;5.40;;
8482;SDS011;4278;42.668;23.312;2023-12-14T09:53:10;9.53;;;5.43;;
8482;SDS011;4278;42.668;23.312;2023-12-14T09:55:37;8.90;;;5.47;;
8482;SDS011;4278;42.668;23.312;2023-12-14T09:58:04;6.73;;;4.87;;
8482;SDS011;4278;42.668;23.312;2023-12-14T10:00:35;9.77;;;5.43;;
8482;SDS011;4278;42.668;23.312;2023-12-14T10:03:17;9.97;;;5.10;;
8482;SDS011;4278;42.668;23.312;2023-12-14T10:05:47;6.10;;;4.60;;
8482;SDS011;4278;42.668;23.312;2023-12-14T10:08:14;11.33;;;4.43;;
8482;SDS011;4278;42.668;23.312;2023-12-14T10:10:41;13.30;;;4.93;;
8482;SDS011;4278;42.668;23.312;2023-12-14T10:13:08;8.07;;;4.80;;
8482;SDS011;4278;42.668;23.312;2023-12-14T10:15:42;7.10;;;5.03;;
8482;SDS011;4278;42.668;23.312;2023-12-14T10:18:10;8.87;;;5.83;;
8482;SDS011;4278;42.668;23.312;2023-12-14T10:20:37;9.50;;;5.73;;
8482;SDS011;4278;42.668;23.312;2023-12-14T10:23:07;11.93;;;5.40;;
8482;SDS011;4278;42.668;23.312;2023-12-14T10:25:35;11.37;;;5.33;;
8482;SDS011;4278;42.668;23.312;2023-12-14T10:28:02;12.90;;;6.23;;
8482;SDS011;4278;42.668;23.312;2023-12-14T10:30:29;9.90;;;5.70;;
8482;SDS011;4278;42.668;23.312;2023-12-14T10:32:56;16.63;;;5.20;;
8482;SDS011;4278;42.668;23.312;2023-12-14T10:35:24;11.97;;;5.87;;
8482;SDS011;4278;42.668;23.312;2023-12-14T10:37:52;11.37;;;6.10;;
8482;SDS011;4278;42.668;23.312;2023-12-14T10:40:21;9.53;;;6.83;;
8482;SDS011;4278;42.668;23.312;2023-12-14T10:42:51;12.50;;;6.97;;
8482;SDS011;4278;42.668;23.312;2023-12-14T10:45:21;16.40;;;7.27;;
8482;SDS011;4278;42.668;23.312;2023-12-14T10:47:53;10.40;;;7.43;;
8482;SDS011;4278;42.668;23.312;2023-12-14T10:50:20;12.10;;;7.67;;
8482;SDS011;4278;42.668;23.312;2023-12-14T10:52:48;11.43;;;8.07;;
8482;SDS011;4278;42.668;23.312;2023-12-14T10:55:18;10.50;;;6.97;;
8482;SDS011;4278;42.668;23.312;2023-12-14T10:57:51;10.63;;;6.53;;
8482;SDS011;4278;42.668;23.312;2023-12-14T11:00:19;10.70;;;6.90;;
8482;SDS011;4278;42.668;23.312;2023-12-14T11:02:46;9.50;;;6.83;;
8482;SDS011;4278;42.668;23.312;2023-12-14T11:05:14;9.10;;;6.30;;
8482;SDS011;4278;42.668;23.312;2023-12-14T11:07:48;9.17;;;5.57;;
8482;SDS011;4278;42.668;23.312;2023-12-14T11:10:23;10.83;;;4.20;;
8482;SDS011;4278;42.668;23.312;2023-12-14T11:12:56;8.53;;;4.23;;
8482;SDS011;4278;42.668;23.312;2023-12-14T11:15:27;6.77;;;3.27;;
8482;SDS011;4278;42.668;23.312;2023-12-14T11:20:48;10.63;;;3.03;;
8482;SDS011;4278;42.668;23.312;2023-12-14T11:23:17;3.60;;;2.80;;
8482;SDS011;4278;42.668;23.312;2023-12-14T11:25:54;3.30;;;2.70;;
8482;SDS011;4278;42.668;23.312;2023-12-14T11:28:23;6.57;;;2.87;;
8482;SDS011;4278;42.668;23.312;2023-12-14T11:30:51;6.37;;;3.10;;
8482;SDS011;4278;42.668;23.312;2023-12-14T11:33:18;5.90;;;2.60;;
8482;SDS011;4278;42.668;23.312;2023-12-14T11:35:45;2.60;;;1.83;;
8482;SDS011;4278;42.668;23.312;2023-12-14T11:38:12;3.20;;;2.20;;
8482;SDS011;4278;42.668;23.312;2023-12-14T11:40:39;2.27;;;2.07;;
8482;SDS011;4278;42.668;23.312;2023-12-14T11:43:08;2.10;;;1.80;;
8482;SDS011;4278;42.668;23.312;2023-12-14T11:45:35;3.43;;;2.03;;
8482;SDS011;4278;42.668;23.312;2023-12-14T11:48:02;4.40;;;1.63;;
8482;SDS011;4278;42.668;23.312;2023-12-14T11:50:31;4.20;;;1.60;;
8482;SDS011;4278;42.668;23.312;2023-12-14T11:52:59;2.03;;;1.60;;
8482;SDS011;4278;42.668;23.312;2023-12-14T11:55:28;10.33;;;2.20;;
8482;SDS011;4278;42.668;23.312;2023-12-14T11:57:57;2.60;;;1.73;;
8482;SDS011;4278;42.668;23.312;2023-12-14T12:00:26;2.50;;;1.97;;
8482;SDS011;4278;42.668;23.312;2023-12-14T12:03:06;2.77;;;1.53;;
8482;SDS011;4278;42.668;23.312;2023-12-14T12:05:35;2.97;;;1.27;;
8482;SDS011;4278;42.668;23.312;2023-12-14T12:08:02;3.80;;;1.57;;
8482;SDS011;4278;42.668;23.312;2023-12-14T12:10:30;2.63;;;1.37;;
8482;SDS011;4278;42.668;23.312;2023-12-14T12:13:00;1.27;;;1.10;;
8482;SDS011;4278;42.668;23.312;2023-12-14T12:15:31;1.23;;;1.13;;
8482;SDS011;4278;42.668;23.312;2023-12-14T12:18:01;2.17;;;1.07;;
8482;SDS011;4278;42.668;23.312;2023-12-14T12:20:29;2.13;;;1.40;;
8482;SDS011;4278;42.668;23.312;2023-12-14T12:22:57;1.43;;;0.90;;
8482;SDS011;4278;42.668;23.312;2023-12-14T12:25:24;1.30;;;1.20;;
8482;SDS011;4278;42.668;23.312;2023-12-14T12:27:52;2.63;;;1.30;;
8482;SDS011;4278;42.668;23.312;2023-12-14T12:30:20;1.67;;;1.20;;
8482;SDS011;4278;42.668;23.312;2023-12-14T12:32:49;1.20;;;1.10;;
8482;SDS011;4278;42.668;23.312;2023-12-14T12:35:16;1.30;;;1.10;;
8482;SDS011;4278;42.668;23.312;2023-12-14T12:37:44;5.73;;;1.20;;
8482;SDS011;4278;42.668;23.312;2023-12-14T12:40:11;5.50;;;1.27;;
8482;SDS011;4278;42.668;23.312;2023-12-14T12:42:40;1.33;;;1.00;;
8482;SDS011;4278;42.668;23.312;2023-12-14T12:45:07;1.00;;;1.00;;
8482;SDS011;4278;42.668;23.312;2023-12-14T12:47:35;1.20;;;1.10;;
8482;SDS011;4278;42.668;23.312;2023-12-14T12:50:04;1.63;;;1.50;;
8482;SDS011;4278;42.668;23.312;2023-12-14T12:52:32;1.67;;;1.20;;
8482;SDS011;4278;42.668;23.312;2023-12-14T12:54:59;3.00;;;1.20;;
8482;SDS011;4278;42.668;23.312;2023-12-14T12:57:27;1.30;;;1.20;;
8482;SDS011;4278;42.668;23.312;2023-12-14T12:59:54;4.10;;;1.23;;
8482;SDS011;4278;42.668;23.312;2023-12-14T13:02:21;1.53;;;1.17;;
8482;SDS011;4278;42.668;23.312;2023-12-14T13:04:48;1.53;;;1.30;;
8482;SDS011;4278;42.668;23.312;2023-12-14T13:07:16;1.30;;;1.20;;
8482;SDS011;4278;42.668;23.312;2023-12-14T13:09:44;1.40;;;1.30;;
8482;SDS011;4278;42.668;23.312;2023-12-14T13:12:10;2.07;;;1.23;;
8482;SDS011;4278;42.668;23.312;2023-12-14T13:14:38;2.23;;;1.50;;
8482;SDS011;4278;42.668;23.312;2023-12-14T13:17:05;1.30;;;1.20;;
8482;SDS011;4278;42.668;23.312;2023-12-14T13:19:32;4.23;;;2.33;;
8482;SDS011;4278;42.668;23.312;2023-12-14T13:21:59;1.57;;;1.30;;
8482;SDS011;4278;42.668;23.312;2023-12-14T13:24:28;2.27;;;1.43;;
8482;SDS011;4278;42.668;23.312;2023-12-14T13:26:55;1.10;;;0.97;;
8482;SDS011;4278;42.668;23.312;2023-12-14T13:29:22;3.43;;;1.67;;
8482;SDS011;4278;42.668;23.312;2023-12-14T13:31:49;1.33;;;1.00;;
8482;SDS011;4278;42.668;23.312;2023-12-14T13:34:16;2.33;;;1.10;;
8482;SDS011;4278;42.668;23.312;2023-12-14T13:36:43;1.57;;;1.40;;
8482;SDS011;4278;42.668;23.312;2023-12-14T13:39:10;9.47;;;2.67;;
8482;SDS011;4278;42.668;23.312;2023-12-14T13:41:39;1.80;;;1.50;;
8482;SDS011;4278;42.668;23.312;2023-12-14T13:44:06;1.50;;;1.30;;
8482;SDS011;4278;42.668;23.312;2023-12-14T13:46:33;1.37;;;1.00;;
8482;SDS011;4278;42.668;23.312;2023-12-14T13:49:00;1.23;;;1.10;;
8482;SDS011;4278;42.668;23.312;2023-12-14T13:51:27;1.43;;;1.10;;
8482;SDS011;4278;42.668;23.312;2023-12-14T13:53:54;2.50;;;1.50;;
8482;SDS011;4278;42.668;23.312;2023-12-14T13:56:21;2.33;;;1.30;;
8482;SDS011;4278;42.668;23.312;2023-12-14T13:58:50;1.23;;;1.03;;
8482;SDS011;4278;42.668;23.312;2023-12-14T14:01:17;1.20;;;1.10;;
8482;SDS011;4278;42.668;23.312;2023-12-14T14:03:44;0.90;;;0.90;;
8482;SDS011;4278;42.668;23.312;2023-12-14T14:06:12;1.00;;;1.00;;
8482;SDS011;4278;42.668;23.312;2023-12-14T14:08:39;1.50;;;1.07;;
8482;SDS011;4278;42.668;23.312;2023-12-14T14:11:06;1.30;;;1.20;;
8482;SDS011;4278;42.668;23.312;2023-12-14T14:13:33;1.93;;;1.30;;
8482;SDS011;4278;42.668;23.312;2023-12-14T14:16:01;1.37;;;1.23;;
8482;SDS011;4278;42.668;23.312;2023-12-14T14:18:30;1.70;;;1.23;;
8482;SDS011;4278;42.668;23.312;2023-12-14T14:20:57;1.73;;;1.30;;
8482;SDS011;4278;42.668;23.312;2023-12-14T14:23:23;2.43;;;1.00;;
8482;SDS011;4278;42.668;23.312;2023-12-14T14:25:51;2.50;;;1.50;;
8482;SDS011;4278;42.668;23.312;2023-12-14T14:28:19;6.30;;;1.53;;
8482;SDS011;4278;42.668;23.312;2023-12-14T14:30:47;2.13;;;1.80;;
8482;SDS011;4278;42.668;23.312;2023-12-14T14:33:16;1.30;;;1.20;;
8482;SDS011;4278;42.668;23.312;2023-12-14T14:35:44;3.73;;;2.03;;
8482;SDS011;4278;42.668;23.312;2023-12-14T14:38:11;2.33;;;1.83;;
8482;SDS011;4278;42.668;23.312;2023-12-14T14:40:38;1.90;;;1.40;;
8482;SDS011;4278;42.668;23.312;2023-12-14T14:43:06;2.30;;;1.30;;
8482;SDS011;4278;42.668;23.312;2023-12-14T14:45:34;2.63;;;1.43;;
8482;SDS011;4278;42.668;23.312;2023-12-14T14:48:03;3.87;;;1.30;;
8482;SDS011;4278;42.668;23.312;2023-12-14T14:50:34;1.40;;;1.30;;
8482;SDS011;4278;42.668;23.312;2023-12-14T14:53:02;1.90;;;1.70;;
8482;SDS011;4278;42.668;23.312;2023-12-14T14:55:29;1.97;;;1.57;;